createdAt,value
2018-12-01T00:01:36.453Z,52.05
2018-12-01T00:04:04.800Z,52.08
2018-12-01T00:06:33.149Z,51.77
2018-12-01T00:09:01.478Z,52.00
2018-12-01T00:11:29.821Z,52.00
2018-12-01T00:13:58.147Z,52.04
2018-12-01T00:16:26.487Z,51.89
2018-12-01T00:18:54.836Z,52.15
2018-12-01T00:21:23.175Z,51.99
2018-12-01T00:23:51.515Z,52.01
2018-12-01T00:26:19.861Z,52.02
2018-12-01T00:28:48.201Z,51.96
2018-12-01T00:31:16.547Z,52.12
2018-12-01T00:33:44.873Z,52.01
2018-12-01T00:36:13.206Z,52.13
2018-12-01T00:38:41.558Z,52.13
2018-12-01T00:41:09.888Z,52.25
2018-12-01T00:43:38.219Z,52.30
2018-12-01T00:46:06.547Z,52.27
2018-12-01T00:48:34.886Z,52.26
2018-12-01T00:51:03.689Z,52.37
2018-12-01T00:53:32.030Z,52.51
2018-12-01T00:56:00.363Z,52.65
2018-12-01T00:58:28.701Z,52.57
2018-12-01T01:00:57.040Z,52.53
2018-12-01T01:03:25.598Z,52.67
2018-12-01T01:05:53.749Z,52.74
2018-12-01T01:08:22.078Z,52.76
2018-12-01T01:10:50.434Z,52.84
2018-12-01T01:13:18.768Z,52.87
2018-12-01T01:15:47.090Z,52.90
2018-12-01T01:18:15.425Z,52.90
2018-12-01T01:20:43.750Z,52.91
2018-12-01T01:23:12.100Z,52.99
2018-12-01T01:25:40.444Z,53.05
2018-12-01T01:28:08.797Z,53.02
2018-12-01T01:30:37.138Z,53.02
2018-12-01T01:33:05.485Z,52.93
2018-12-01T01:35:34.137Z,53.08
2018-12-01T01:38:02.470Z,53.03
2018-12-01T01:40:30.791Z,53.09
2018-12-01T01:42:59.130Z,53.02
2018-12-01T01:45:27.452Z,52.95
2018-12-01T01:47:55.793Z,53.00
2018-12-01T01:50:24.124Z,52.90
2018-12-01T01:52:52.458Z,52.98
2018-12-01T01:55:20.782Z,52.83
2018-12-01T01:57:49.133Z,52.69
2018-12-01T02:00:17.484Z,52.72
2018-12-01T02:02:45.803Z,52.91
2018-12-01T02:05:14.132Z,52.86
2018-12-01T02:07:42.460Z,52.89
2018-12-01T02:10:10.784Z,52.88
2018-12-01T02:12:39.119Z,53.10
2018-12-01T02:15:07.464Z,52.95
2018-12-01T02:17:35.794Z,52.87
2018-12-01T02:20:04.137Z,53.02
2018-12-01T02:22:32.475Z,53.09
2018-12-01T02:25:00.803Z,53.08
2018-12-01T02:27:29.130Z,53.06
2018-12-01T02:29:57.464Z,53.14
2018-12-01T02:32:25.805Z,53.18
2018-12-01T02:34:54.135Z,53.13
2018-12-01T02:37:22.463Z,52.97
2018-12-01T02:39:50.787Z,53.11
2018-12-01T02:42:19.113Z,53.04
2018-12-01T02:44:59.308Z,53.24
2018-12-01T02:47:27.642Z,53.26
2018-12-01T02:49:55.978Z,53.19
2018-12-01T02:52:24.310Z,53.15
2018-12-01T02:54:52.635Z,53.13
2018-12-01T02:57:20.969Z,53.40
2018-12-01T02:59:49.296Z,53.42
2018-12-01T03:02:17.633Z,53.47
2018-12-01T03:04:45.965Z,53.48
2018-12-01T03:07:14.284Z,53.52
2018-12-01T03:09:42.638Z,53.58
2018-12-01T03:12:10.943Z,53.45
2018-12-01T03:14:39.287Z,53.49
2018-12-01T03:17:07.603Z,53.52
2018-12-01T03:19:35.957Z,53.55
2018-12-01T03:22:04.261Z,53.59
2018-12-01T03:24:32.593Z,53.61
2018-12-01T03:27:00.955Z,53.58
2018-12-01T03:29:29.340Z,53.52
2018-12-01T03:31:57.666Z,53.65
2018-12-01T03:34:26.010Z,53.73
2018-12-01T03:36:54.337Z,53.89
2018-12-01T03:39:22.665Z,53.84
2018-12-01T03:41:50.998Z,53.79
2018-12-01T03:44:19.323Z,53.82
2018-12-01T03:46:47.665Z,53.94
2018-12-01T03:49:16.223Z,53.73
2018-12-01T03:51:44.324Z,53.96
2018-12-01T03:54:12.645Z,54.19
2018-12-01T03:56:40.975Z,54.17
2018-12-01T03:59:09.304Z,54.24
2018-12-01T04:01:37.637Z,54.03
2018-12-01T04:04:06.188Z,54.16
2018-12-01T04:06:34.297Z,54.10
2018-12-01T04:09:02.634Z,54.09
2018-12-01T04:11:30.963Z,54.16
2018-12-01T04:13:59.290Z,54.19
2018-12-01T04:16:27.628Z,54.15
2018-12-01T04:18:55.972Z,54.24
2018-12-01T04:21:24.299Z,54.20
2018-12-01T04:23:52.629Z,54.16
2018-12-01T04:26:20.962Z,54.23
2018-12-01T04:28:49.296Z,54.32
2018-12-01T04:31:17.667Z,54.22
2018-12-01T04:33:46.012Z,54.17
2018-12-01T04:36:14.343Z,54.55
2018-12-01T04:38:42.677Z,54.39
2018-12-01T04:41:11.018Z,54.43
2018-12-01T04:43:39.350Z,54.43
2018-12-01T04:46:07.669Z,54.36
2018-12-01T04:48:36.016Z,54.63
2018-12-01T04:51:04.344Z,54.61
2018-12-01T04:53:32.693Z,54.58
2018-12-01T04:56:01.029Z,54.56
2018-12-01T04:58:29.359Z,54.59
2018-12-01T05:00:57.686Z,54.57
2018-12-01T05:03:26.020Z,54.57
2018-12-01T05:05:54.361Z,54.55
2018-12-01T05:08:22.690Z,54.56
2018-12-01T05:10:51.030Z,54.87
2018-12-01T05:13:19.363Z,54.73
2018-12-01T05:15:47.691Z,54.66
2018-12-01T05:18:16.029Z,54.60
2018-12-01T05:20:44.367Z,54.63
2018-12-01T05:23:12.703Z,54.80
2018-12-01T05:25:41.045Z,54.84
2018-12-01T05:28:09.378Z,54.84
2018-12-01T05:30:37.720Z,54.95
2018-12-01T05:33:06.055Z,55.31
2018-12-01T05:35:34.402Z,55.10
2018-12-01T05:38:02.734Z,55.09
2018-12-01T05:40:31.059Z,55.22
2018-12-01T05:42:59.398Z,54.95
2018-12-01T05:45:27.730Z,54.96
2018-12-01T05:47:56.082Z,55.10
2018-12-01T05:50:24.417Z,54.97
2018-12-01T05:52:52.763Z,54.87
2018-12-01T05:55:21.099Z,55.33
2018-12-01T05:57:49.439Z,55.23
2018-12-01T06:00:17.775Z,55.37
2018-12-01T06:02:46.109Z,55.50
2018-12-01T06:05:14.439Z,55.39
2018-12-01T06:07:42.774Z,55.39
2018-12-01T06:10:11.107Z,55.47
2018-12-01T06:12:39.437Z,55.32
2018-12-01T06:15:07.771Z,55.54
2018-12-01T06:17:36.104Z,55.61
2018-12-01T06:20:04.441Z,55.81
2018-12-01T06:22:32.774Z,55.54
2018-12-01T06:25:01.110Z,55.67
2018-12-01T06:27:29.455Z,55.59
2018-12-01T06:29:57.795Z,55.82
2018-12-01T06:32:26.263Z,56.07
2018-12-01T06:34:54.596Z,56.15
2018-12-01T06:37:22.932Z,56.35
2018-12-01T06:39:51.291Z,56.23
2018-12-01T06:42:19.641Z,56.60
2018-12-01T06:44:47.986Z,56.61
2018-12-01T06:47:16.329Z,56.80
2018-12-01T06:49:44.644Z,56.92
2018-12-01T06:52:12.990Z,56.96
2018-12-01T06:54:41.324Z,56.64
2018-12-01T06:57:09.674Z,56.81
2018-12-01T06:59:38.005Z,56.83
2018-12-01T07:02:06.356Z,56.76
2018-12-01T07:04:34.696Z,56.78
2018-12-01T07:07:03.032Z,56.73
2018-12-01T07:09:31.377Z,56.69
2018-12-01T07:11:59.754Z,56.70
2018-12-01T07:14:28.137Z,56.79
2018-12-01T07:16:56.472Z,56.84
2018-12-01T07:19:25.294Z,57.06
2018-12-01T07:21:53.425Z,57.08
2018-12-01T07:24:21.763Z,57.04
2018-12-01T07:26:50.099Z,57.27
2018-12-01T07:29:18.429Z,57.15
2018-12-01T07:31:46.773Z,57.10
2018-12-01T07:34:15.107Z,57.32
2018-12-01T07:36:43.444Z,57.22
2018-12-01T07:39:11.780Z,57.06
2018-12-01T07:41:40.116Z,57.08
2018-12-01T07:44:08.456Z,57.04
2018-12-01T07:46:36.792Z,57.14
2018-12-01T07:49:05.175Z,57.25
2018-12-01T07:51:33.513Z,57.24
2018-12-01T07:54:02.320Z,57.11
2018-12-01T07:56:30.685Z,56.92
2018-12-01T07:58:59.030Z,57.00
2018-12-01T08:01:27.378Z,56.90
2018-12-01T08:03:55.728Z,56.98
2018-12-01T08:06:24.574Z,57.09
2018-12-01T08:08:52.600Z,57.23
2018-12-01T08:11:21.354Z,57.55
2018-12-01T08:13:49.670Z,57.30
2018-12-01T08:16:18.024Z,57.27
2018-12-01T08:18:46.380Z,57.16
2018-12-01T08:21:15.692Z,57.27
2018-12-01T08:23:44.040Z,57.05
2018-12-01T08:26:12.411Z,57.09
2018-12-01T08:28:40.743Z,57.32
2018-12-01T08:31:09.093Z,57.29
2018-12-01T08:33:37.483Z,57.22
2018-12-01T08:36:05.854Z,57.12
2018-12-01T08:38:34.955Z,56.95
2018-12-01T08:41:03.304Z,56.86
2018-12-01T08:43:31.640Z,56.87
2018-12-01T08:46:00.241Z,56.91
2018-12-01T08:48:28.355Z,56.98
2018-12-01T08:50:56.769Z,57.21
2018-12-01T08:53:25.441Z,57.10
2018-12-01T08:55:53.800Z,57.01
2018-12-01T08:58:24.563Z,57.13
2018-12-01T09:00:52.896Z,57.05
2018-12-01T09:03:21.235Z,56.82
2018-12-01T09:05:49.573Z,56.83
2018-12-01T09:08:17.936Z,56.78
2018-12-01T09:10:46.291Z,56.72
2018-12-01T09:13:14.630Z,56.63
2018-12-01T09:15:42.973Z,56.40
2018-12-01T09:18:11.311Z,56.42
2018-12-01T09:20:39.684Z,56.22
2018-12-01T09:23:08.042Z,56.20
2018-12-01T09:25:36.372Z,56.24
2018-12-01T09:28:05.741Z,56.23
2018-12-01T09:30:34.073Z,56.07
2018-12-01T09:33:02.678Z,55.98
2018-12-01T09:35:30.845Z,55.79
2018-12-01T09:37:59.186Z,55.80
2018-12-01T09:40:27.566Z,55.41
2018-12-01T09:42:56.541Z,55.77
2018-12-01T09:45:24.896Z,55.35
2018-12-01T09:47:53.239Z,55.38
2018-12-01T09:50:21.593Z,55.63
2018-12-01T09:52:49.913Z,55.62
2018-12-01T09:55:18.285Z,55.51
2018-12-01T09:57:46.622Z,55.39
2018-12-01T10:00:14.982Z,55.36
2018-12-01T10:02:43.360Z,55.40
2018-12-01T10:05:11.719Z,55.35
2018-12-01T10:07:40.072Z,55.47
2018-12-01T10:10:08.409Z,55.36
2018-12-01T10:12:36.758Z,55.50
2018-12-01T10:15:05.088Z,55.56
2018-12-01T10:17:35.286Z,55.45
2018-12-01T10:20:04.171Z,55.54
2018-12-01T10:22:32.526Z,55.51
2018-12-01T10:25:00.884Z,55.38
2018-12-01T10:27:29.746Z,55.21
2018-12-01T10:29:57.810Z,55.39
2018-12-01T10:32:26.148Z,55.24
2018-12-01T10:34:54.520Z,55.25
2018-12-01T10:37:22.917Z,55.15
2018-12-01T10:39:51.246Z,55.52
2018-12-01T10:42:19.842Z,55.39
2018-12-01T10:44:48.194Z,55.59
2018-12-01T10:47:16.819Z,55.58
2018-12-01T10:49:44.935Z,55.20
2018-12-01T10:52:13.833Z,55.47
2018-12-01T10:54:42.980Z,55.07
2018-12-01T10:57:11.605Z,54.74
2018-12-01T10:59:38.425Z,54.74
2018-12-01T11:02:06.757Z,54.48
2018-12-01T11:04:35.138Z,54.45
2018-12-01T11:07:03.716Z,54.82
2018-12-01T11:09:32.105Z,54.97
2018-12-01T11:12:00.933Z,54.40
2018-12-01T11:14:30.021Z,54.60
2018-12-01T11:16:58.383Z,54.45
2018-12-01T11:19:26.516Z,54.37
2018-12-01T11:21:55.542Z,54.37
2018-12-01T11:24:23.906Z,54.46
2018-12-01T11:26:52.960Z,54.39
2018-12-01T11:29:21.287Z,53.91
2018-12-01T11:31:50.449Z,54.23
2018-12-01T11:34:18.844Z,54.24
2018-12-01T11:36:47.199Z,54.33
2018-12-01T11:39:16.013Z,54.08
2018-12-01T11:41:44.443Z,54.16
2018-12-01T11:44:12.779Z,53.71
2018-12-01T11:46:41.128Z,53.64
2018-12-01T11:49:09.724Z,54.09
2018-12-01T11:51:38.105Z,54.15
2018-12-01T11:54:06.470Z,54.06
2018-12-01T11:56:34.887Z,54.20
2018-12-01T11:59:03.255Z,53.98
2018-12-01T12:01:31.624Z,54.20
2018-12-01T12:04:00.118Z,54.73
2018-12-01T12:06:28.841Z,54.81
2018-12-01T12:08:57.691Z,54.87
2018-12-01T12:11:26.548Z,54.99
2018-12-01T12:13:54.964Z,55.23
2018-12-01T12:16:23.542Z,55.37
2018-12-01T12:18:52.470Z,55.44
2018-12-01T12:21:21.435Z,55.67
2018-12-01T12:23:49.926Z,55.92
2018-12-01T12:26:18.274Z,55.94
2018-12-01T12:28:46.691Z,55.96
2018-12-01T12:31:15.195Z,56.04
2018-12-01T12:33:43.566Z,56.05
2018-12-01T12:36:13.806Z,56.10
2018-12-01T12:38:42.035Z,56.20
2018-12-01T12:41:10.539Z,56.32
2018-12-01T12:43:38.873Z,56.65
2018-12-01T12:46:08.050Z,56.55
2018-12-01T12:48:36.635Z,56.80
2018-12-01T12:51:05.057Z,56.86
2018-12-01T12:53:33.775Z,57.06
2018-12-01T12:56:01.885Z,57.42
2018-12-01T12:58:30.425Z,57.66
2018-12-01T13:00:59.215Z,58.00
2018-12-01T13:03:27.586Z,57.99
2018-12-01T13:05:56.900Z,58.01
2018-12-01T13:08:25.315Z,58.11
2018-12-01T13:10:53.730Z,58.05
2018-12-01T13:13:22.088Z,58.68
2018-12-01T13:15:50.538Z,58.53
2018-12-01T13:18:19.427Z,58.56
2018-12-01T13:20:48.153Z,58.42
2018-12-01T13:23:16.522Z,58.49
2018-12-01T13:25:44.889Z,58.59
2018-12-01T13:28:13.845Z,58.85
2018-12-01T13:30:42.164Z,59.47
2018-12-01T13:33:10.495Z,59.25
2018-12-01T13:35:38.858Z,59.04
2018-12-01T13:38:07.172Z,59.01
2018-12-01T13:40:35.516Z,58.82
2018-12-01T13:43:04.174Z,59.01
2018-12-01T13:45:32.505Z,58.99
2018-12-01T13:48:00.842Z,58.91
2018-12-01T13:50:30.104Z,59.27
2018-12-01T13:52:58.440Z,59.25
2018-12-01T13:55:26.765Z,59.51
2018-12-01T13:57:55.094Z,59.14
2018-12-01T14:00:23.497Z,59.38
2018-12-01T14:02:51.830Z,59.38
2018-12-01T14:05:20.178Z,60.04
2018-12-01T14:07:48.524Z,59.89
2018-12-01T14:10:16.935Z,59.85
2018-12-01T14:12:45.310Z,59.93
2018-12-01T14:15:13.718Z,60.02
2018-12-01T14:17:42.082Z,59.78
2018-12-01T14:23:04.504Z,59.56
2018-12-01T14:25:33.122Z,59.55
2018-12-01T14:28:01.516Z,60.05
2018-12-01T14:30:29.891Z,60.08
2018-12-01T14:32:58.271Z,60.04
2018-12-01T14:35:26.626Z,60.00
2018-12-01T14:37:55.323Z,59.97
2018-12-01T14:40:24.492Z,60.31
2018-12-01T14:42:52.789Z,60.36
2018-12-01T14:45:21.118Z,59.90
2018-12-01T14:47:49.497Z,60.09
2018-12-01T14:50:18.083Z,60.29
2018-12-01T14:52:46.214Z,60.68
2018-12-01T14:55:14.610Z,60.58
2018-12-01T14:57:42.931Z,60.57
2018-12-01T15:00:11.271Z,60.52
2018-12-01T15:02:39.626Z,60.66
2018-12-01T15:05:07.963Z,60.90
2018-12-01T15:07:36.324Z,61.09
2018-12-01T15:10:04.657Z,61.43
2018-12-01T15:12:32.995Z,61.62
2018-12-01T15:15:01.394Z,61.64
2018-12-01T15:17:30.419Z,61.65
2018-12-01T15:19:59.033Z,62.04
2018-12-01T15:22:27.128Z,63.21
2018-12-01T15:24:55.488Z,63.66
2018-12-01T15:27:23.872Z,63.34
2018-12-01T15:29:52.237Z,63.22
2018-12-01T15:32:20.655Z,63.15
2018-12-01T15:34:49.110Z,63.55
2018-12-01T15:37:17.488Z,63.51
2018-12-01T15:39:45.820Z,63.65
2018-12-01T15:42:14.183Z,63.65
2018-12-01T15:44:42.525Z,64.26
2018-12-01T15:47:10.945Z,64.42
2018-12-01T15:49:39.375Z,64.19
2018-12-01T15:52:07.706Z,64.39
2018-12-01T15:54:36.081Z,64.97
2018-12-01T15:57:04.419Z,64.91
2018-12-01T15:59:32.830Z,64.68
2018-12-01T16:02:01.167Z,65.28
2018-12-01T16:04:29.594Z,65.40
2018-12-01T16:06:57.929Z,65.75
2018-12-01T16:09:26.308Z,65.67
2018-12-01T16:11:54.635Z,65.63
2018-12-01T16:14:23.003Z,66.04
2018-12-01T16:16:51.364Z,65.86
2018-12-01T16:19:19.915Z,65.47
2018-12-01T16:21:48.044Z,66.48
2018-12-01T16:24:16.417Z,66.52
2018-12-01T16:26:44.827Z,66.32
2018-12-01T16:29:13.174Z,66.43
2018-12-01T16:31:41.522Z,66.46
2018-12-01T16:34:09.867Z,66.31
2018-12-01T16:36:38.236Z,66.53
2018-12-01T16:39:06.702Z,66.73
2018-12-01T16:41:35.521Z,66.45
2018-12-01T16:44:03.709Z,67.44
2018-12-01T16:46:32.065Z,67.56
2018-12-01T16:49:00.469Z,67.59
2018-12-01T16:51:28.790Z,67.18
2018-12-01T16:53:57.128Z,67.61
2018-12-01T16:56:25.662Z,68.03
2018-12-01T16:58:54.007Z,67.68
2018-12-01T17:01:22.355Z,67.54
2018-12-01T17:03:50.852Z,67.79
2018-12-01T17:06:19.280Z,68.39
2018-12-01T17:08:47.745Z,68.51
2018-12-01T17:11:16.228Z,68.42
2018-12-01T17:13:44.650Z,68.44
2018-12-01T17:16:12.974Z,67.88
2018-12-01T17:18:41.440Z,68.20
2018-12-01T17:21:10.469Z,67.79
2018-12-01T17:23:39.019Z,68.23
2018-12-01T17:26:07.125Z,68.05
2018-12-01T17:28:35.574Z,67.77
2018-12-01T17:31:03.954Z,68.06
2018-12-01T17:33:32.717Z,68.32
2018-12-01T17:36:01.778Z,67.94
2018-12-01T17:38:30.116Z,68.46
2018-12-01T17:40:58.474Z,68.49
2018-12-01T17:43:26.865Z,68.99
2018-12-01T17:45:55.220Z,69.46
2018-12-01T17:48:23.637Z,69.26
2018-12-01T17:50:52.048Z,69.26
2018-12-01T17:53:20.427Z,69.23
2018-12-01T17:55:48.797Z,69.62
2018-12-01T17:58:17.194Z,69.90
2018-12-01T18:00:45.537Z,70.24
2018-12-01T18:03:13.904Z,69.56
2018-12-01T18:05:43.225Z,70.30
2018-12-01T18:08:11.672Z,70.35
2018-12-01T18:10:39.975Z,70.06
2018-12-01T18:13:08.367Z,70.25
2018-12-01T18:15:36.698Z,70.47
2018-12-01T18:18:05.022Z,70.71
2018-12-01T18:20:33.359Z,70.55
2018-12-01T18:23:01.881Z,70.82
2018-12-01T18:25:30.241Z,70.93
2018-12-01T18:27:58.624Z,70.86
2018-12-01T18:30:26.973Z,70.73
2018-12-01T18:32:55.324Z,70.48
2018-12-01T18:35:23.691Z,70.36
2018-12-01T18:37:52.021Z,70.11
2018-12-01T18:40:20.382Z,70.04
2018-12-01T18:42:48.719Z,69.56
2018-12-01T18:45:17.059Z,69.44
2018-12-01T18:47:45.404Z,69.77
2018-12-01T18:50:13.759Z,70.15
2018-12-01T18:52:42.085Z,70.71
2018-12-01T18:55:10.426Z,70.58
2018-12-01T18:57:38.769Z,71.17
2018-12-01T19:00:07.120Z,71.62
2018-12-01T19:02:35.619Z,71.83
2018-12-01T19:05:03.978Z,71.81
2018-12-01T19:07:32.304Z,71.98
2018-12-01T19:10:00.668Z,72.22
2018-12-01T19:12:29.017Z,71.86
2018-12-01T19:14:57.430Z,72.37
2018-12-01T19:17:25.776Z,72.58
2018-12-01T19:19:55.176Z,72.67
2018-12-01T19:22:22.568Z,72.49
2018-12-01T19:24:50.934Z,72.19
2018-12-01T19:27:19.280Z,72.30
2018-12-01T19:29:47.610Z,72.49
2018-12-01T19:32:15.953Z,72.32
2018-12-01T19:34:44.301Z,72.47
2018-12-01T19:37:12.645Z,72.27
2018-12-01T19:39:41.105Z,72.32
2018-12-01T19:42:09.434Z,72.27
2018-12-01T19:44:37.770Z,72.17
2018-12-01T19:47:06.096Z,72.20
2018-12-01T19:49:34.431Z,72.24
2018-12-01T19:52:03.287Z,72.11
2018-12-01T19:54:31.350Z,72.19
2018-12-01T19:56:59.697Z,72.30
2018-12-01T19:59:28.036Z,72.46
2018-12-01T20:01:56.411Z,72.36
2018-12-01T20:04:24.849Z,72.21
2018-12-01T20:06:53.191Z,72.27
2018-12-01T20:09:21.503Z,72.16
2018-12-01T20:11:49.989Z,72.08
2018-12-01T20:14:18.369Z,72.10
2018-12-01T20:16:46.707Z,72.05
2018-12-01T20:19:15.073Z,72.01
2018-12-01T20:21:44.003Z,72.08
2018-12-01T20:24:12.515Z,72.23
2018-12-01T20:26:40.852Z,72.33
2018-12-01T20:29:09.186Z,72.65
2018-12-01T20:31:37.600Z,72.78
2018-12-01T20:34:06.042Z,72.96
2018-12-01T20:36:34.366Z,72.91
2018-12-01T20:39:02.713Z,72.93
2018-12-01T20:41:31.044Z,73.05
2018-12-01T20:43:59.393Z,73.43
2018-12-01T20:46:27.782Z,73.40
2018-12-01T20:48:56.131Z,73.34
2018-12-01T20:51:24.790Z,73.50
2018-12-01T20:53:53.376Z,73.19
2018-12-01T20:56:21.719Z,73.50
2018-12-01T20:58:50.144Z,73.79
2018-12-01T21:01:18.694Z,73.67
2018-12-01T21:03:46.803Z,74.00
2018-12-01T21:06:15.161Z,74.07
2018-12-01T21:08:43.507Z,74.24
2018-12-01T21:11:11.847Z,74.46
2018-12-01T21:13:40.225Z,74.58
2018-12-01T21:16:08.564Z,74.56
2018-12-01T21:18:36.918Z,74.45
2018-12-01T21:21:05.261Z,74.46
2018-12-01T21:23:33.880Z,74.37
2018-12-01T21:26:02.233Z,74.23
2018-12-01T21:28:30.589Z,74.05
2018-12-01T21:31:00.092Z,74.16
2018-12-01T21:33:28.508Z,73.92
2018-12-01T21:35:56.919Z,73.92
2018-12-01T21:38:25.244Z,73.84
2018-12-01T21:40:53.585Z,74.01
2018-12-01T21:43:21.919Z,74.16
2018-12-01T21:45:50.254Z,74.43
2018-12-01T21:48:18.630Z,74.55
2018-12-01T21:50:47.052Z,74.70
2018-12-01T21:53:15.375Z,74.63
2018-12-01T21:55:43.755Z,74.32
2018-12-01T21:58:12.128Z,74.66
2018-12-01T22:00:40.465Z,74.63
2018-12-01T22:03:08.799Z,74.96
2018-12-01T22:05:37.139Z,75.13
2018-12-01T22:08:05.498Z,75.35
2018-12-01T22:10:33.839Z,75.24
2018-12-01T22:13:02.178Z,75.00
2018-12-01T22:15:30.516Z,74.71
2018-12-01T22:17:58.913Z,74.84
2018-12-01T22:20:27.342Z,74.80
2018-12-01T22:22:56.005Z,74.64
2018-12-01T22:25:24.354Z,74.58
2018-12-01T22:27:52.685Z,74.70
2018-12-01T22:30:21.063Z,75.12
2018-12-01T22:32:49.414Z,75.65
2018-12-01T22:35:17.810Z,75.54
2018-12-01T22:37:46.143Z,75.61
2018-12-01T22:40:14.566Z,75.46
2018-12-01T22:42:43.175Z,75.17
2018-12-01T22:45:11.282Z,75.20
2018-12-01T22:47:40.383Z,75.00
2018-12-01T22:50:09.228Z,74.91
2018-12-01T22:52:38.122Z,75.22
2018-12-01T22:55:06.514Z,75.57
2018-12-01T22:57:35.315Z,75.59
2018-12-01T23:00:03.881Z,75.52
2018-12-01T23:02:31.984Z,75.38
2018-12-01T23:05:00.310Z,75.32
2018-12-01T23:07:28.645Z,75.40
2018-12-01T23:09:56.982Z,75.51
2018-12-01T23:12:25.326Z,75.51
2018-12-01T23:14:53.666Z,75.57
2018-12-01T23:17:21.994Z,75.68
2018-12-01T23:19:50.325Z,75.88
2018-12-01T23:22:19.309Z,75.93
2018-12-01T23:24:47.628Z,75.87
2018-12-01T23:27:15.985Z,75.82
2018-12-01T23:29:44.332Z,75.68
2018-12-01T23:32:12.786Z,75.78
2018-12-01T23:34:41.107Z,75.94
2018-12-01T23:37:09.782Z,75.93
2018-12-01T23:39:38.124Z,76.09
2018-12-01T23:42:06.465Z,76.13
2018-12-01T23:44:34.803Z,76.20
2018-12-01T23:47:03.140Z,76.14
2018-12-01T23:49:31.482Z,76.12
2018-12-01T23:51:59.824Z,76.08
2018-12-01T23:54:28.164Z,75.99
2018-12-01T23:56:56.527Z,75.91
2018-12-01T23:59:24.908Z,75.83
